Time;durP1;ratioP1;P1;durP2;ratioP2;P2;SDS_P1;SDS_P2;PMS_P1;PMS_P2;Temp;Humidity;BMP_temperature;BMP_pressure;BME280_temperature;BME280_humidity;BME280_pressure;Samples;Min_cycle;Max_cycle;Signal;HPM_P1;HPM_P2
2022/11/29 00:00:24;;;;;;;;;;;7.80;99.90;;;;;;5043864;28;20019;-81
2022/11/29 00:02:51;;;;;;;;;;;7.80;99.90;;;;;;5026517;28;19929;-81
2022/11/29 00:05:17;;;;;;;;;;;7.80;99.90;;;;;;5064726;28;19921;-81
2022/11/29 00:07:42;;;;;;;;;;;7.80;99.90;;;;;;5057909;28;19927;-81
2022/11/29 00:10:08;;;;;;;;;;;7.80;99.90;;;;;;5046676;28;19924;-81
2022/11/29 00:12:34;;;;;;;;;;;7.80;99.90;;;;;;5049033;28;19928;-81
2022/11/29 00:14:59;;;;;;;;;;;7.80;99.90;;;;;;5030070;28;19966;-81
2022/11/29 00:17:25;;;;;;;;;;;7.80;99.90;;;;;;5028882;28;19921;-81
2022/11/29 00:19:50;;;;;;;;;;;7.70;99.90;;;;;;5048379;28;19920;-81
2022/11/29 00:22:16;;;;;;;;;;;7.80;99.90;;;;;;5035132;28;19940;-81
2022/11/29 00:24:42;;;;;;;;;;;7.80;99.90;;;;;;5049941;28;19928;-81
2022/11/29 00:27:07;;;;;;;;;;;7.80;99.90;;;;;;5063279;28;20255;-82
2022/11/29 00:29:33;;;;;;;;;;;7.80;99.90;;;;;;5060424;28;19927;-81
2022/11/29 00:31:58;;;;;;;;;;;7.80;99.90;;;;;;5049260;28;20007;-81
2022/11/29 00:34:24;;;;;;;;;;;7.70;99.90;;;;;;5046357;28;20382;-81
2022/11/29 00:36:50;;;;;;;;;;;7.70;99.90;;;;;;5055062;28;19920;-81
2022/11/29 00:39:15;;;;;;;;;;;7.80;99.90;;;;;;5047882;28;20050;-81
2022/11/29 00:41:41;;;;;;;;;;;7.70;99.90;;;;;;5045684;28;19931;-81
2022/11/29 00:44:07;;;;;;;;;;;7.70;99.90;;;;;;5061856;28;19921;-81
2022/11/29 00:46:32;;;;;;;;;;;7.70;99.90;;;;;;5029872;28;19934;-82
2022/11/29 00:48:58;;;;;;;;;;;7.70;99.90;;;;;;5058463;28;19920;-81
2022/11/29 00:51:24;;;;;;;;;;;7.70;99.90;;;;;;5025957;28;21177;-81
2022/11/29 00:53:49;;;;;;;;;;;7.70;99.90;;;;;;5063325;28;20373;-81
2022/11/29 00:56:15;;;;;;;;;;;7.70;99.90;;;;;;5041206;28;19932;-81
2022/11/29 00:58:42;;;;;;;;;;;7.70;99.90;;;;;;5040011;28;19960;-81
2022/11/29 01:01:08;;;;;;;;;;;7.70;99.90;;;;;;5064866;28;19932;-82
2022/11/29 01:03:33;;;;;;;;;;;7.70;99.90;;;;;;5049872;28;19984;-81
2022/11/29 01:06:03;;;;;;;;;;;7.70;99.90;;;;;;5039500;28;19921;-81
2022/11/29 01:08:29;;;;;;;;;;;7.70;99.90;;;;;;5065743;28;19921;-80
2022/11/29 01:11:09;;;;;;;;;;;7.80;99.90;;;;;;5060166;28;19957;-81
2022/11/29 01:13:35;;;;;;;;;;;7.70;99.90;;;;;;5067029;28;19946;-81
2022/11/29 01:16:01;;;;;;;;;;;7.70;99.90;;;;;;5059315;28;19947;-81
2022/11/29 01:18:29;;;;;;;;;;;7.70;99.90;;;;;;5038615;28;19921;-80
2022/11/29 01:20:58;;;;;;;;;;;7.70;99.90;;;;;;5073070;28;19908;-81
2022/11/29 01:23:23;;;;;;;;;;;7.70;99.90;;;;;;5076931;28;19924;-81
2022/11/29 01:25:56;;;;;;;;;;;7.70;99.90;;;;;;5056909;28;19925;-80
2022/11/29 01:28:22;;;;;;;;;;;7.70;99.90;;;;;;5075172;28;19975;-80
2022/11/29 01:30:47;;;;;;;;;;;7.70;99.90;;;;;;5061169;28;19921;-81
2022/11/29 01:33:13;;;;;;;;;;;7.70;99.90;;;;;;5058647;28;19924;-81
2022/11/29 01:35:38;;;;;;;;;;;7.70;99.90;;;;;;5079738;28;19924;-81
2022/11/29 01:38:04;;;;;;;;;;;7.70;99.90;;;;;;5060402;28;19908;-81
2022/11/29 01:40:29;;;;;;;;;;;7.90;99.90;;;;;;5074674;28;19920;-80
2022/11/29 01:42:55;;;;;;;;;;;7.80;99.90;;;;;;5059080;28;19949;-81
2022/11/29 01:45:23;;;;;;;;;;;7.70;99.90;;;;;;5054222;28;20480;-81
2022/11/29 01:47:51;;;;;;;;;;;7.80;99.90;;;;;;5070140;28;19921;-81
2022/11/29 01:50:17;;;;;;;;;;;7.70;99.90;;;;;;5057185;28;19921;-80
2022/11/29 01:52:43;;;;;;;;;;;7.70;99.90;;;;;;5058463;28;19982;-82
2022/11/29 01:55:09;;;;;;;;;;;7.70;99.90;;;;;;5085597;28;20393;-80
2022/11/29 01:57:35;;;;;;;;;;;7.70;99.90;;;;;;5062422;28;19921;-80
2022/11/29 02:00:06;;;;;;;;;;;7.80;99.90;;;;;;5064699;28;19985;-81
2022/11/29 02:02:34;;;;;;;;;;;7.70;99.90;;;;;;5064692;28;19933;-82
2022/11/29 02:05:01;;;;;;;;;;;7.70;99.90;;;;;;5075332;28;19921;-81
2022/11/29 02:07:26;;;;;;;;;;;7.70;99.90;;;;;;5075227;28;19921;-80
2022/11/29 02:09:52;;;;;;;;;;;7.70;99.90;;;;;;5078274;28;19921;-81
2022/11/29 02:12:17;;;;;;;;;;;7.70;99.90;;;;;;5071259;28;19955;-81
2022/11/29 02:14:59;;;;;;;;;;;7.80;99.90;;;;;;5056232;28;19917;-82
2022/11/29 02:17:43;;;;;;;;;;;7.70;99.90;;;;;;5052276;28;19921;-81
2022/11/29 02:20:24;;;;;;;;;;;7.70;99.90;;;;;;5065058;28;19917;-80
2022/11/29 02:23:03;;;;;;;;;;;7.70;99.90;;;;;;5056882;28;19956;-81
2022/11/29 02:25:41;;;;;;;;;;;7.70;99.90;;;;;;5059383;28;19978;-81
2022/11/29 02:28:26;;;;;;;;;;;7.70;99.90;;;;;;5085969;28;19927;-82
2022/11/29 02:30:51;;;;;;;;;;;7.70;99.90;;;;;;5078105;28;19905;-82
2022/11/29 02:33:23;;;;;;;;;;;7.70;99.90;;;;;;5056920;28;19924;-82
2022/11/29 02:35:48;;;;;;;;;;;7.70;99.90;;;;;;5065220;28;19920;-81
2022/11/29 02:38:17;;;;;;;;;;;7.70;99.90;;;;;;5072597;28;20075;-81
2022/11/29 02:40:54;;;;;;;;;;;7.70;99.90;;;;;;5058868;28;19985;-82
2022/11/29 02:43:38;;;;;;;;;;;7.70;99.90;;;;;;5056043;28;19915;-81
2022/11/29 02:46:11;;;;;;;;;;;7.70;99.90;;;;;;5063114;28;19935;-82
2022/11/29 02:48:37;;;;;;;;;;;7.70;99.90;;;;;;5079299;28;19927;-81
2022/11/29 02:51:12;;;;;;;;;;;7.70;99.90;;;;;;5053750;28;19979;-82
2022/11/29 02:53:42;;;;;;;;;;;7.70;99.90;;;;;;5051914;28;19947;-82
2022/11/29 02:56:15;;;;;;;;;;;7.70;99.90;;;;;;5062848;28;20352;-81
2022/11/29 02:58:51;;;;;;;;;;;7.70;99.90;;;;;;5037599;28;19931;-81
2022/11/29 03:01:23;;;;;;;;;;;7.70;99.90;;;;;;5054612;28;19926;-82
2022/11/29 03:04:01;;;;;;;;;;;7.80;99.90;;;;;;5044306;28;19925;-81
2022/11/29 03:06:38;;;;;;;;;;;7.70;99.90;;;;;;5042981;28;19927;-81
2022/11/29 03:09:06;;;;;;;;;;;7.70;99.90;;;;;;5044132;28;19960;-80
2022/11/29 03:11:41;;;;;;;;;;;7.70;99.90;;;;;;5048741;28;19927;-81
2022/11/29 03:14:24;;;;;;;;;;;7.70;99.90;;;;;;5058762;28;20019;-82
2022/11/29 03:16:52;;;;;;;;;;;7.70;99.90;;;;;;5050648;28;19928;-82
2022/11/29 03:19:18;;;;;;;;;;;7.70;99.90;;;;;;5034017;28;19921;-81
2022/11/29 03:22:02;;;;;;;;;;;7.70;99.90;;;;;;5062787;28;19924;-82
2022/11/29 03:24:54;;;;;;;;;;;7.70;99.90;;;;;;5061546;28;20023;-81
2022/11/29 03:27:23;;;;;;;;;;;7.70;99.90;;;;;;5027858;28;19921;-81
2022/11/29 03:29:49;;;;;;;;;;;7.70;99.90;;;;;;5054271;28;19921;-81
2022/11/29 03:32:32;;;;;;;;;;;7.70;99.90;;;;;;5046760;28;20284;-81
2022/11/29 03:35:04;;;;;;;;;;;7.70;99.90;;;;;;5036921;28;19981;-81
2022/11/29 03:37:42;;;;;;;;;;;7.70;99.90;;;;;;5054243;28;19928;-81
2022/11/29 03:40:09;;;;;;;;;;;7.70;99.90;;;;;;5036763;28;19952;-81
2022/11/29 03:42:47;;;;;;;;;;;7.70;99.90;;;;;;5040728;28;19928;-81
2022/11/29 03:45:12;;;;;;;;;;;7.70;99.90;;;;;;5071456;28;19925;-81
2022/11/29 03:47:58;;;;;;;;;;;7.60;99.90;;;;;;5041743;28;19921;-81
2022/11/29 03:50:27;;;;;;;;;;;7.60;99.90;;;;;;5051173;28;19925;-82
2022/11/29 03:53:02;;;;;;;;;;;7.60;99.90;;;;;;5053256;28;19936;-81
2022/11/29 03:56:06;;;;;;;;;;;7.60;99.90;;;;;;5051815;28;19921;-81
2022/11/29 03:58:35;;;;;;;;;;;7.60;99.90;;;;;;5016665;28;19967;-82
2022/11/29 04:01:06;;;;;;;;;;;7.80;99.90;;;;;;5015163;28;19921;-82
2022/11/29 04:03:46;;;;;;;;;;;7.60;99.90;;;;;;5034778;28;19924;-81
2022/11/29 04:06:14;;;;;;;;;;;8.10;99.90;;;;;;5042272;28;19920;-82
2022/11/29 04:08:43;;;;;;;;;;;7.60;99.90;;;;;;5040960;28;19928;-82
2022/11/29 04:11:23;;;;;;;;;;;7.60;99.90;;;;;;5039944;28;20412;-82
2022/11/29 04:13:52;;;;;;;;;;;7.50;99.90;;;;;;5055855;28;19928;-82
2022/11/29 04:16:34;;;;;;;;;;;7.50;99.90;;;;;;5058004;28;19935;-80
2022/11/29 04:19:09;;;;;;;;;;;7.50;99.90;;;;;;5057404;28;19921;-81
2022/11/29 04:21:54;;;;;;;;;;;7.50;99.90;;;;;;5058396;28;19931;-82
2022/11/29 04:24:25;;;;;;;;;;;7.40;99.90;;;;;;5042377;28;19967;-81
2022/11/29 04:27:04;;;;;;;;;;;7.40;99.90;;;;;;5055447;28;20015;-81
2022/11/29 04:29:48;;;;;;;;;;;7.30;99.90;;;;;;5043702;28;20007;-81
2022/11/29 04:32:29;;;;;;;;;;;7.30;99.90;;;;;;5037584;28;19921;-81
2022/11/29 04:35:13;;;;;;;;;;;7.20;99.90;;;;;;5038436;28;20479;-82
2022/11/29 04:38:08;;;;;;;;;;;7.20;99.90;;;;;;5040851;28;19921;-81
2022/11/29 04:40:50;;;;;;;;;;;7.10;99.90;;;;;;5036864;28;19948;-81
2022/11/29 04:43:37;;;;;;;;;;;7.10;99.90;;;;;;5053169;28;19924;-81
2022/11/29 04:46:07;;;;;;;;;;;7.00;99.90;;;;;;5052782;28;20420;-81
2022/11/29 04:48:33;;;;;;;;;;;7.00;99.90;;;;;;5042592;28;21226;-81
2022/11/29 04:51:25;;;;;;;;;;;7.00;99.90;;;;;;5058369;28;20420;-81
2022/11/29 04:53:54;;;;;;;;;;;7.00;99.90;;;;;;5027030;28;20015;-81
2022/11/29 04:56:24;;;;;;;;;;;7.00;99.90;;;;;;5060517;28;19967;-80
2022/11/29 04:58:50;;;;;;;;;;;6.90;99.90;;;;;;5056194;28;19927;-81
2022/11/29 05:01:24;;;;;;;;;;;6.90;99.90;;;;;;5035141;28;19933;-81
2022/11/29 05:03:53;;;;;;;;;;;6.90;99.90;;;;;;5054403;28;20273;-81
2022/11/29 05:06:26;;;;;;;;;;;6.90;99.90;;;;;;5056591;28;19921;-80
2022/11/29 05:09:00;;;;;;;;;;;6.90;99.90;;;;;;5040826;28;19967;-80
2022/11/29 05:11:33;;;;;;;;;;;6.90;99.90;;;;;;5041797;28;19928;-81
2022/11/29 05:14:08;;;;;;;;;;;6.90;99.90;;;;;;5040893;28;19928;-81
2022/11/29 05:16:52;;;;;;;;;;;6.90;99.90;;;;;;5054948;28;20453;-81
2022/11/29 05:19:36;;;;;;;;;;;6.90;99.90;;;;;;5040845;28;19956;-81
2022/11/29 05:22:08;;;;;;;;;;;6.90;99.90;;;;;;5037853;28;19959;-81
2022/11/29 05:24:47;;;;;;;;;;;6.80;99.90;;;;;;5062136;28;19929;-81
2022/11/29 05:27:27;;;;;;;;;;;6.90;99.90;;;;;;5057346;28;19920;-81
2022/11/29 05:29:55;;;;;;;;;;;6.90;99.90;;;;;;5048069;28;19952;-81
2022/11/29 05:32:21;;;;;;;;;;;6.80;99.90;;;;;;5057947;28;19920;-81
2022/11/29 05:34:52;;;;;;;;;;;6.80;99.90;;;;;;5036940;28;19921;-81
2022/11/29 05:37:18;;;;;;;;;;;6.90;99.90;;;;;;5041449;28;19921;-80
2022/11/29 05:39:47;;;;;;;;;;;6.90;99.90;;;;;;5038671;28;19920;-81
2022/11/29 05:42:30;;;;;;;;;;;6.80;99.90;;;;;;5054909;28;19948;-81
2022/11/29 05:45:07;;;;;;;;;;;6.80;99.90;;;;;;5053093;28;19924;-81
2022/11/29 05:47:42;;;;;;;;;;;6.80;99.90;;;;;;5032730;28;20027;-81
2022/11/29 05:50:12;;;;;;;;;;;6.80;99.90;;;;;;5050996;28;19921;-81
2022/11/29 05:53:03;;;;;;;;;;;6.90;99.90;;;;;;5058492;28;19936;-81
2022/11/29 05:55:29;;;;;;;;;;;6.90;99.90;;;;;;5037993;28;19975;-81
2022/11/29 05:57:58;;;;;;;;;;;6.90;99.90;;;;;;5041766;28;19924;-81
2022/11/29 06:00:26;;;;;;;;;;;6.90;99.90;;;;;;5053831;28;19936;-81
2022/11/29 06:02:58;;;;;;;;;;;6.90;99.90;;;;;;5059643;28;19931;-82
2022/11/29 06:05:36;;;;;;;;;;;6.90;99.90;;;;;;5052528;28;19947;-81
2022/11/29 06:08:04;;;;;;;;;;;6.90;99.90;;;;;;5042055;28;19928;-81
2022/11/29 06:10:31;;;;;;;;;;;6.90;99.90;;;;;;5053573;28;20396;-81
2022/11/29 06:13:17;;;;;;;;;;;6.90;99.90;;;;;;5040669;28;19942;-81
2022/11/29 06:15:46;;;;;;;;;;;6.90;99.90;;;;;;5041148;28;19931;-81
2022/11/29 06:18:30;;;;;;;;;;;6.90;99.90;;;;;;5056238;28;19995;-81
2022/11/29 06:21:06;;;;;;;;;;;6.90;99.90;;;;;;5058189;28;19928;-81
2022/11/29 06:23:49;;;;;;;;;;;6.90;99.90;;;;;;5056083;28;19932;-81
2022/11/29 06:26:18;;;;;;;;;;;6.90;99.90;;;;;;5050096;28;20412;-81
2022/11/29 06:28:47;;;;;;;;;;;6.80;99.90;;;;;;5043768;28;19927;-81
2022/11/29 06:31:33;;;;;;;;;;;6.90;99.90;;;;;;5058052;28;19928;-81
2022/11/29 06:34:08;;;;;;;;;;;6.90;99.90;;;;;;5061709;28;19920;-81
2022/11/29 06:36:44;;;;;;;;;;;6.90;99.90;;;;;;5043215;28;19940;-81
2022/11/29 06:39:10;;;;;;;;;;;6.90;99.90;;;;;;5057738;28;20550;-81
2022/11/29 06:41:36;;;;;;;;;;;6.90;99.90;;;;;;5025464;28;19956;-81
2022/11/29 06:44:02;;;;;;;;;;;6.80;99.90;;;;;;5048779;28;19966;-82
2022/11/29 06:46:31;;;;;;;;;;;6.80;99.90;;;;;;5041454;28;19921;-80
2022/11/29 06:48:59;;;;;;;;;;;6.80;99.90;;;;;;5050736;28;20345;-80
2022/11/29 06:51:30;;;;;;;;;;;6.90;99.90;;;;;;5060354;28;20720;-79
2022/11/29 06:54:03;;;;;;;;;;;6.80;99.90;;;;;;5061889;28;19930;-80
2022/11/29 06:56:35;;;;;;;;;;;6.90;99.90;;;;;;5068762;28;19921;-81
2022/11/29 06:59:04;;;;;;;;;;;6.80;99.90;;;;;;5068775;28;20354;-82
2022/11/29 07:01:29;;;;;;;;;;;6.90;99.90;;;;;;5065500;28;19939;-81
2022/11/29 07:04:08;;;;;;;;;;;6.90;99.90;;;;;;5053048;28;20011;-81
2022/11/29 07:06:34;;;;;;;;;;;6.80;99.90;;;;;;5069639;28;19970;-81
2022/11/29 07:09:02;;;;;;;;;;;6.90;99.90;;;;;;5055408;28;20004;-81
2022/11/29 07:11:27;;;;;;;;;;;6.80;99.90;;;;;;5070787;28;20167;-81
2022/11/29 07:13:53;;;;;;;;;;;6.90;99.90;;;;;;5067861;28;20393;-81
2022/11/29 07:16:38;;;;;;;;;;;6.80;99.90;;;;;;5028924;28;20378;-80
2022/11/29 07:19:26;;;;;;;;;;;6.80;99.90;;;;;;5061370;28;19952;-81
2022/11/29 07:22:17;;;;;;;;;;;6.80;99.90;;;;;;5013688;28;19920;-81
2022/11/29 07:24:45;;;;;;;;;;;6.80;99.90;;;;;;5044525;28;19936;-81
2022/11/29 07:27:14;;;;;;;;;;;6.80;99.90;;;;;;5039839;28;19921;-80
2022/11/29 07:29:40;;;;;;;;;;;6.80;99.90;;;;;;5046629;28;19991;-80
2022/11/29 07:32:08;;;;;;;;;;;6.80;99.90;;;;;;5046242;28;19924;-80
2022/11/29 07:34:46;;;;;;;;;;;6.80;99.90;;;;;;5041179;28;19968;-80
2022/11/29 07:37:14;;;;;;;;;;;6.90;99.90;;;;;;5043355;28;19921;-80
2022/11/29 07:39:46;;;;;;;;;;;6.80;99.90;;;;;;5059831;28;19920;-81
2022/11/29 07:42:18;;;;;;;;;;;7.00;99.90;;;;;;5036342;28;19976;-82
2022/11/29 07:45:11;;;;;;;;;;;6.80;99.90;;;;;;5051874;28;19979;-81
2022/11/29 07:47:37;;;;;;;;;;;6.80;99.90;;;;;;5055120;28;19925;-80
2022/11/29 07:50:03;;;;;;;;;;;6.90;99.90;;;;;;5056561;28;20638;-82
2022/11/29 07:52:28;;;;;;;;;;;6.80;99.90;;;;;;5057415;28;19999;-81
2022/11/29 07:54:54;;;;;;;;;;;6.90;99.90;;;;;;5035761;28;19921;-82
2022/11/29 07:57:20;;;;;;;;;;;6.90;99.90;;;;;;5041409;28;19996;-81
2022/11/29 07:59:45;;;;;;;;;;;7.00;99.90;;;;;;5043345;28;19925;-81
2022/11/29 08:02:11;;;;;;;;;;;6.90;99.90;;;;;;5055246;28;19940;-81
2022/11/29 08:04:41;;;;;;;;;;;6.80;99.90;;;;;;5041037;28;19921;-80
2022/11/29 08:07:06;;;;;;;;;;;6.90;99.90;;;;;;5054635;28;19925;-79
2022/11/29 08:09:32;;;;;;;;;;;6.90;99.90;;;;;;5054653;28;19931;-79
2022/11/29 08:11:57;;;;;;;;;;;6.80;99.90;;;;;;5048365;28;19921;-79
2022/11/29 08:14:23;;;;;;;;;;;6.80;99.90;;;;;;5054510;28;19956;-79
2022/11/29 08:16:49;;;;;;;;;;;6.80;99.90;;;;;;5043296;28;19921;-79
2022/11/29 08:19:14;;;;;;;;;;;6.80;99.90;;;;;;5044533;28;19928;-78
2022/11/29 08:21:41;;;;;;;;;;;6.80;99.90;;;;;;5065340;28;19929;-80
2022/11/29 08:24:07;;;;;;;;;;;6.80;99.90;;;;;;5058983;28;19921;-79
2022/11/29 08:26:32;;;;;;;;;;;6.80;99.90;;;;;;5061655;28;19975;-79
2022/11/29 08:28:58;;;;;;;;;;;6.70;99.90;;;;;;5048976;28;19955;-79
2022/11/29 08:31:24;;;;;;;;;;;6.80;99.90;;;;;;5067373;28;20000;-79
2022/11/29 08:33:49;;;;;;;;;;;6.70;99.90;;;;;;5060366;28;20028;-79
2022/11/29 08:36:16;;;;;;;;;;;6.90;99.90;;;;;;5058383;28;19927;-79
2022/11/29 08:38:42;;;;;;;;;;;6.70;99.90;;;;;;5065664;28;19920;-79
2022/11/29 08:41:09;;;;;;;;;;;6.70;99.90;;;;;;5042121;28;19927;-79
2022/11/29 08:43:34;;;;;;;;;;;6.70;99.90;;;;;;5052813;28;19928;-79
2022/11/29 08:46:00;;;;;;;;;;;6.70;99.90;;;;;;5058280;28;19929;-79
2022/11/29 08:48:26;;;;;;;;;;;6.70;99.90;;;;;;5062624;28;19931;-79
2022/11/29 08:50:52;;;;;;;;;;;6.70;99.90;;;;;;5044625;28;19920;-79
2022/11/29 08:56:02;;;;;;;;;;;6.70;99.90;;;;;;5055854;28;19928;-78
2022/11/29 08:58:28;;;;;;;;;;;6.70;99.90;;;;;;5050431;28;19920;-79
2022/11/29 09:00:53;;;;;;;;;;;7.00;99.90;;;;;;5055877;28;19963;-79
2022/11/29 09:06:08;;;;;;;;;;;6.70;99.90;;;;;;5058422;28;19929;-79
2022/11/29 09:08:34;;;;;;;;;;;6.70;99.90;;;;;;5059889;28;19995;-79
2022/11/29 09:10:59;;;;;;;;;;;6.70;99.90;;;;;;5068807;28;20365;-79
2022/11/29 09:13:25;;;;;;;;;;;6.70;99.90;;;;;;5057740;28;19924;-78
2022/11/29 09:15:51;;;;;;;;;;;6.90;99.90;;;;;;5060093;28;19975;-79
2022/11/29 09:18:16;;;;;;;;;;;6.70;99.90;;;;;;5052031;28;19921;-79
2022/11/29 09:20:42;;;;;;;;;;;6.80;99.90;;;;;;5044215;28;19921;-79
2022/11/29 09:23:09;;;;;;;;;;;6.80;99.90;;;;;;5062016;28;19955;-78
2022/11/29 09:25:35;;;;;;;;;;;7.00;99.90;;;;;;5064403;28;19928;-79
2022/11/29 09:28:01;;;;;;;;;;;6.90;99.90;;;;;;5027601;28;19974;-79
2022/11/29 09:30:30;;;;;;;;;;;6.90;99.90;;;;;;5041876;28;19921;-79
2022/11/29 09:33:01;;;;;;;;;;;6.90;99.90;;;;;;5052152;28;20023;-79
2022/11/29 09:35:27;;;;;;;;;;;6.90;99.90;;;;;;5035526;28;20015;-78
2022/11/29 09:37:53;;;;;;;;;;;6.90;99.90;;;;;;5061509;28;19987;-78
2022/11/29 09:40:19;;;;;;;;;;;6.90;99.90;;;;;;5045845;28;19925;-78
2022/11/29 09:43:14;;;;;;;;;;;7.20;99.90;;;;;;5059025;28;19925;-79
2022/11/29 09:45:41;;;;;;;;;;;7.00;99.90;;;;;;5028996;28;19920;-79
2022/11/29 09:48:07;;;;;;;;;;;7.00;99.90;;;;;;5054876;28;19921;-78
2022/11/29 09:50:32;;;;;;;;;;;7.00;99.90;;;;;;5068484;28;19921;-78
2022/11/29 09:53:16;;;;;;;;;;;7.00;99.90;;;;;;5052110;28;19947;-79
2022/11/29 09:56:01;;;;;;;;;;;7.10;99.90;;;;;;5053046;28;20378;-78
2022/11/29 09:58:30;;;;;;;;;;;7.10;99.90;;;;;;5034946;28;19921;-79
2022/11/29 10:00:58;;;;;;;;;;;7.20;99.90;;;;;;5068313;28;20594;-78
2022/11/29 10:03:28;;;;;;;;;;;7.20;99.90;;;;;;5040680;28;19924;-79
2022/11/29 10:06:07;;;;;;;;;;;7.30;99.90;;;;;;5059020;28;19943;-78
2022/11/29 10:08:35;;;;;;;;;;;7.30;99.90;;;;;;5045315;28;20340;-79
2022/11/29 10:11:16;;;;;;;;;;;7.30;99.90;;;;;;5065640;28;19925;-79
2022/11/29 10:13:45;;;;;;;;;;;7.40;99.90;;;;;;5066889;28;19925;-78
2022/11/29 10:16:18;;;;;;;;;;;7.40;99.90;;;;;;5045187;28;20596;-78
2022/11/29 10:19:07;;;;;;;;;;;7.40;99.90;;;;;;5045122;28;19920;-78
2022/11/29 10:21:35;;;;;;;;;;;7.40;99.90;;;;;;5034166;28;19920;-79
2022/11/29 10:24:08;;;;;;;;;;;7.40;99.90;;;;;;5066102;28;19935;-79
2022/11/29 10:26:34;;;;;;;;;;;7.40;99.90;;;;;;5040545;28;20007;-78
2022/11/29 10:28:59;;;;;;;;;;;7.50;99.90;;;;;;5059578;28;19956;-80
2022/11/29 10:31:25;;;;;;;;;;;7.50;99.90;;;;;;5034637;28;20018;-80
2022/11/29 10:33:52;;;;;;;;;;;7.50;99.90;;;;;;5047817;28;20366;-80
2022/11/29 10:36:37;;;;;;;;;;;7.50;99.90;;;;;;5043051;28;19932;-81
2022/11/29 10:39:12;;;;;;;;;;;7.50;99.90;;;;;;5058701;28;19927;-78
2022/11/29 10:41:38;;;;;;;;;;;7.60;99.90;;;;;;5053315;28;19921;-79
2022/11/29 10:44:03;;;;;;;;;;;7.60;99.90;;;;;;5058897;28;19973;-79
2022/11/29 10:46:33;;;;;;;;;;;7.60;99.90;;;;;;5053569;28;20040;-78
2022/11/29 10:49:01;;;;;;;;;;;7.60;99.90;;;;;;5058940;28;19921;-78
2022/11/29 10:51:27;;;;;;;;;;;7.70;99.90;;;;;;5038437;28;19924;-78
2022/11/29 10:53:56;;;;;;;;;;;7.70;99.90;;;;;;5058870;28;19924;-78
2022/11/29 10:56:24;;;;;;;;;;;7.70;99.90;;;;;;5052027;28;20000;-78
2022/11/29 10:58:54;;;;;;;;;;;7.80;99.90;;;;;;5035140;28;20382;-77
2022/11/29 11:01:20;;;;;;;;;;;7.80;99.90;;;;;;5035297;28;19928;-78
2022/11/29 11:03:50;;;;;;;;;;;7.80;99.90;;;;;;5039342;28;19951;-81
2022/11/29 11:06:20;;;;;;;;;;;7.90;99.90;;;;;;5061287;28;20507;-80
2022/11/29 11:08:51;;;;;;;;;;;7.90;99.90;;;;;;5058330;28;19925;-81
2022/11/29 11:11:27;;;;;;;;;;;7.90;99.90;;;;;;5061233;28;19929;-81
2022/11/29 11:14:04;;;;;;;;;;;7.90;99.90;;;;;;5059853;28;19921;-81
2022/11/29 11:16:29;;;;;;;;;;;7.90;99.90;;;;;;5057698;28;19929;-81
2022/11/29 11:18:55;;;;;;;;;;;7.90;99.90;;;;;;5056910;28;19988;-81
2022/11/29 11:21:22;;;;;;;;;;;7.90;99.90;;;;;;5052719;28;20007;-82
2022/11/29 11:23:59;;;;;;;;;;;7.90;99.90;;;;;;5043768;28;19925;-80
2022/11/29 11:26:25;;;;;;;;;;;7.90;99.90;;;;;;5044149;28;19928;-81
2022/11/29 11:28:58;;;;;;;;;;;8.00;99.90;;;;;;5036416;28;19921;-76
2022/11/29 11:31:30;;;;;;;;;;;8.00;99.90;;;;;;5060377;28;19928;-76
2022/11/29 11:33:56;;;;;;;;;;;8.00;99.90;;;;;;5052260;28;19936;-77
2022/11/29 11:36:23;;;;;;;;;;;8.00;99.90;;;;;;5055893;28;19921;-79
2022/11/29 11:38:54;;;;;;;;;;;8.00;99.90;;;;;;5056180;28;19921;-78
2022/11/29 11:42:35;;;;;;;;;;;8.00;99.90;;;;;;5033648;28;19982;-80
2022/11/29 11:44:19;;;;;;;;;;;8.00;99.90;;;;;;5052858;28;19924;-79
2022/11/29 11:46:46;;;;;;;;;;;8.00;99.90;;;;;;5052813;28;19932;-80
2022/11/29 11:49:12;;;;;;;;;;;8.00;99.90;;;;;;5049775;28;20401;-78
2022/11/29 11:51:40;;;;;;;;;;;8.00;99.90;;;;;;5051578;28;19920;-79
2022/11/29 11:54:12;;;;;;;;;;;7.90;99.90;;;;;;5058750;28;20027;-77
2022/11/29 11:56:37;;;;;;;;;;;8.00;99.90;;;;;;5050999;28;19921;-78
2022/11/29 11:59:03;;;;;;;;;;;7.90;99.90;;;;;;5054379;28;19992;-78
2022/11/29 12:01:29;;;;;;;;;;;7.90;99.90;;;;;;5051664;28;19925;-78
2022/11/29 12:04:01;;;;;;;;;;;7.90;99.90;;;;;;5042114;28;19931;-79
2022/11/29 12:06:38;;;;;;;;;;;7.90;99.90;;;;;;5051426;28;19924;-78
2022/11/29 12:09:04;;;;;;;;;;;7.90;99.90;;;;;;5052023;28;20010;-79
2022/11/29 12:11:38;;;;;;;;;;;7.90;99.90;;;;;;5050488;28;19991;-79
2022/11/29 12:14:04;;;;;;;;;;;8.00;99.90;;;;;;5034860;28;19928;-78
2022/11/29 12:16:33;;;;;;;;;;;7.90;99.90;;;;;;5050701;28;19920;-76
2022/11/29 12:19:05;;;;;;;;;;;7.90;99.90;;;;;;5051525;28;20003;-76
2022/11/29 12:21:33;;;;;;;;;;;7.90;99.90;;;;;;5042828;28;19920;-75
2022/11/29 12:24:04;;;;;;;;;;;7.90;99.90;;;;;;5049597;28;19932;-76
2022/11/29 12:26:31;;;;;;;;;;;7.90;99.90;;;;;;5051007;28;19920;-75
2022/11/29 12:28:58;;;;;;;;;;;8.00;99.90;;;;;;5051366;28;19983;-76
2022/11/29 12:31:24;;;;;;;;;;;8.00;99.90;;;;;;5054685;28;19928;-77
2022/11/29 12:34:08;;;;;;;;;;;7.90;99.90;;;;;;5034434;28;19921;-78
2022/11/29 12:36:44;;;;;;;;;;;7.90;99.90;;;;;;5048296;28;19921;-78
2022/11/29 12:39:27;;;;;;;;;;;7.90;99.90;;;;;;5048180;28;19936;-78
2022/11/29 12:42:01;;;;;;;;;;;7.90;99.90;;;;;;5050157;28;19920;-76
2022/11/29 12:44:39;;;;;;;;;;;7.90;99.90;;;;;;5062274;28;19929;-77
2022/11/29 12:47:15;;;;;;;;;;;7.90;99.90;;;;;;5049191;28;19981;-76
2022/11/29 12:49:46;;;;;;;;;;;8.00;99.90;;;;;;5049172;28;20390;-78
2022/11/29 12:52:20;;;;;;;;;;;8.00;99.90;;;;;;5059218;28;19927;-78
2022/11/29 12:55:00;;;;;;;;;;;8.00;99.90;;;;;;5050776;28;20286;-78
2022/11/29 12:57:35;;;;;;;;;;;8.00;99.90;;;;;;5053411;28;19925;-77
2022/11/29 13:00:19;;;;;;;;;;;8.00;99.90;;;;;;5050608;28;19921;-77
2022/11/29 13:03:03;;;;;;;;;;;8.00;99.90;;;;;;5050150;28;19925;-82
2022/11/29 13:05:41;;;;;;;;;;;8.10;99.90;;;;;;5033718;28;19921;-77
2022/11/29 13:08:31;;;;;;;;;;;8.10;99.90;;;;;;5048606;28;19920;-76
2022/11/29 13:11:22;;;;;;;;;;;8.00;99.90;;;;;;5055750;28;19970;-77
2022/11/29 13:13:53;;;;;;;;;;;8.10;99.90;;;;;;5064581;28;19990;-77
2022/11/29 13:16:18;;;;;;;;;;;8.10;99.90;;;;;;5052830;28;20374;-77
2022/11/29 13:18:57;;;;;;;;;;;8.00;99.90;;;;;;5035613;28;19921;-77
2022/11/29 13:21:30;;;;;;;;;;;8.10;99.90;;;;;;5034280;28;19921;-78
2022/11/29 13:24:02;;;;;;;;;;;8.10;99.90;;;;;;5049790;28;19982;-77
2022/11/29 13:26:28;;;;;;;;;;;8.20;99.90;;;;;;5034842;28;19921;-81
2022/11/29 13:28:54;;;;;;;;;;;8.20;99.90;;;;;;5019666;28;20019;-81
2022/11/29 13:31:20;;;;;;;;;;;8.20;99.90;;;;;;5046782;28;19967;-82
2022/11/29 13:33:52;;;;;;;;;;;8.20;99.90;;;;;;5069649;28;19924;-81
2022/11/29 13:36:17;;;;;;;;;;;8.20;99.90;;;;;;5042353;28;19921;-80
2022/11/29 13:38:58;;;;;;;;;;;8.30;99.90;;;;;;5062003;28;19943;-81
2022/11/29 13:41:36;;;;;;;;;;;8.30;99.90;;;;;;5040188;28;19920;-81
2022/11/29 13:44:26;;;;;;;;;;;8.30;99.90;;;;;;5047027;28;20018;-80
2022/11/29 13:47:06;;;;;;;;;;;8.30;99.90;;;;;;5063383;28;19928;-81
2022/11/29 13:49:49;;;;;;;;;;;8.30;99.90;;;;;;5062997;28;19921;-81
2022/11/29 13:52:33;;;;;;;;;;;8.30;99.90;;;;;;5065317;28;19983;-81
2022/11/29 13:55:28;;;;;;;;;;;8.30;99.90;;;;;;5039791;28;20020;-80
2022/11/29 13:57:53;;;;;;;;;;;8.40;99.90;;;;;;5061031;28;20178;-81
2022/11/29 14:00:38;;;;;;;;;;;8.40;99.90;;;;;;5042655;28;19937;-82
2022/11/29 14:03:19;;;;;;;;;;;8.30;99.90;;;;;;5041953;28;19931;-80
2022/11/29 14:05:46;;;;;;;;;;;8.30;99.90;;;;;;5062198;28;20021;-79
2022/11/29 14:08:26;;;;;;;;;;;8.30;99.90;;;;;;5043298;28;19921;-81
2022/11/29 14:10:53;;;;;;;;;;;8.30;99.90;;;;;;5057930;28;19929;-82
2022/11/29 14:13:21;;;;;;;;;;;8.30;99.90;;;;;;5057525;28;19921;-81
2022/11/29 14:15:53;;;;;;;;;;;9.50;99.90;;;;;;5057263;28;20404;-80
2022/11/29 14:18:39;;;;;;;;;;;8.30;99.90;;;;;;5062529;28;19970;-81
2022/11/29 14:21:05;;;;;;;;;;;8.30;99.90;;;;;;5045070;28;19974;-81
2022/11/29 14:23:34;;;;;;;;;;;8.30;99.90;;;;;;5055992;28;19928;-81
2022/11/29 14:26:00;;;;;;;;;;;8.30;99.90;;;;;;5065354;28;19948;-80
2022/11/29 14:28:30;;;;;;;;;;;8.80;99.90;;;;;;5045324;28;19932;-79
2022/11/29 14:31:05;;;;;;;;;;;8.30;99.90;;;;;;5066711;28;19971;-80
2022/11/29 14:33:50;;;;;;;;;;;8.40;99.90;;;;;;5043522;28;19920;-80
2022/11/29 14:36:30;;;;;;;;;;;8.30;99.90;;;;;;5042046;28;20438;-79
2022/11/29 14:39:16;;;;;;;;;;;8.20;99.90;;;;;;5061230;28;19964;-79
2022/11/29 14:41:51;;;;;;;;;;;8.20;99.90;;;;;;5050226;28;20032;-79
2022/11/29 14:44:18;;;;;;;;;;;8.30;99.90;;;;;;5057299;28;20542;-79
2022/11/29 14:46:44;;;;;;;;;;;8.10;99.90;;;;;;5076221;28;19925;-78
2022/11/29 14:49:20;;;;;;;;;;;8.10;99.90;;;;;;5056353;28;19986;-79
2022/11/29 14:52:05;;;;;;;;;;;8.00;99.90;;;;;;5044669;28;20058;-79
2022/11/29 14:54:31;;;;;;;;;;;8.00;99.90;;;;;;5035782;28;19971;-80
2022/11/29 14:56:57;;;;;;;;;;;8.00;99.90;;;;;;5058131;28;19917;-79
2022/11/29 14:59:37;;;;;;;;;;;7.90;99.90;;;;;;5036214;28;19983;-79
2022/11/29 15:02:16;;;;;;;;;;;7.90;99.90;;;;;;5039917;28;19925;-79